Time;durP1;ratioP1;P1;durP2;ratioP2;P2;SDS_P1;SDS_P2;PMS_P1;PMS_P2;Temp;Humidity;BMP_temperature;BMP_pressure;BME280_temperature;BME280_humidity;BME280_pressure;Samples;Min_cycle;Max_cycle;Signal;HPM_P1;HPM_P2
2022/04/06 00:00:06;;;;;;;7.00;6.10;;;;;;;5.36;99.94;98073.27;103491;1300;24226;-27
2022/04/06 00:02:32;;;;;;;7.80;6.90;;;;;;;5.41;100.00;98070.60;103551;1300;22509;-26
2022/04/06 00:05:00;;;;;;;12.20;11.00;;;;;;;5.51;100.00;98068.65;103582;1300;24217;-32
2022/04/06 00:07:27;;;;;;;7.80;6.70;;;;;;;5.57;100.00;98065.44;103455;1302;24288;-27
2022/04/06 00:09:52;;;;;;;8.00;6.70;;;;;;;5.84;100.00;98064.25;103584;1300;24214;-29
2022/04/06 00:12:18;;;;;;;12.60;5.70;;;;;;;5.97;99.68;98059.56;103508;1300;24276;-24
2022/04/06 00:14:44;;;;;;;6.70;6.10;;;;;;;5.85;99.72;98064.25;103615;1300;24313;-32
2022/04/06 00:17:10;;;;;;;11.10;7.60;;;;;;;5.92;99.93;98065.69;103500;1300;24212;-25
2022/04/06 00:19:36;;;;;;;8.00;7.30;;;;;;;6.14;99.31;98063.77;103536;1300;23897;-24
2022/04/06 00:22:03;;;;;;;8.50;5.50;;;;;;;5.79;99.95;98067.38;103525;1300;24326;-28
2022/04/06 00:24:29;;;;;;;9.20;7.80;;;;;;;6.00;100.00;98067.81;103595;1300;24382;-24
2022/04/06 00:26:55;;;;;;;7.10;6.10;;;;;;;5.94;100.00;98071.95;103531;1300;24216;-30
2022/04/06 00:29:21;;;;;;;4.10;3.80;;;;;;;5.71;100.00;98072.14;103503;1300;24346;-24
2022/04/06 00:31:46;;;;;;;8.20;6.50;;;;;;;6.02;100.00;98068.23;103499;1301;24214;-30
2022/04/06 00:34:12;;;;;;;5.40;4.90;;;;;;;5.88;100.00;98070.83;103626;1300;22628;-25
2022/04/06 00:36:37;;;;;;;6.00;5.10;;;;;;;5.97;100.00;98070.38;103543;1300;24192;-25
2022/04/06 00:39:03;;;;;;;7.30;6.50;;;;;;;5.86;100.00;98075.98;103555;1299;24709;-25
2022/04/06 00:41:29;;;;;;;10.90;6.30;;;;;;;6.04;100.00;98075.83;103545;1300;22757;-25
2022/04/06 00:44:01;;;;;;;5.40;4.90;;;;;;;6.36;100.00;98068.20;103538;1300;24197;-26
2022/04/06 00:46:27;;;;;;;7.70;6.40;;;;;;;6.13;100.00;98073.64;103561;1300;25237;-25
2022/04/06 00:48:53;;;;;;;7.30;6.10;;;;;;;6.41;100.00;98066.20;103452;1300;24186;-25
2022/04/06 00:51:19;;;;;;;7.30;6.60;;;;;;;6.21;100.00;98070.22;103565;1300;24262;-27
2022/04/06 00:53:44;;;;;;;11.20;7.70;;;;;;;6.15;100.00;98071.97;103533;1300;24342;-25
2022/04/06 00:56:10;;;;;;;6.80;6.20;;;;;;;6.24;100.00;98067.73;103559;1300;24305;-30
2022/04/06 00:58:36;;;;;;;10.80;8.00;;;;;;;6.11;100.00;98064.79;103566;1300;24368;-30
2022/04/06 01:01:02;;;;;;;6.50;5.90;;;;;;;6.24;100.00;98066.71;103469;1300;24216;-28
2022/04/06 01:03:28;;;;;;;8.60;6.70;;;;;;;6.31;100.00;98071.96;103491;1300;24509;-29
2022/04/06 01:05:53;;;;;;;7.20;6.40;;;;;;;6.28;100.00;98071.51;103541;1300;24304;-30
2022/04/06 01:08:19;;;;;;;10.50;6.80;;;;;;;6.60;100.00;98065.65;103526;1300;25026;-32
2022/04/06 01:10:45;;;;;;;7.30;6.30;;;;;;;6.46;100.00;98070.11;103528;1300;24192;-25
2022/04/06 01:13:11;;;;;;;7.80;7.00;;;;;;;6.65;99.91;98067.20;103665;1300;24211;-29
2022/04/06 01:15:36;;;;;;;9.50;7.10;;;;;;;6.56;99.62;98073.48;103540;1300;24198;-30
2022/04/06 01:18:02;;;;;;;8.40;6.90;;;;;;;6.50;100.00;98070.69;103564;1300;23601;-25
2022/04/06 01:20:29;;;;;;;9.40;7.50;;;;;;;6.58;100.00;98075.88;103574;1300;23628;-30
2022/04/06 01:22:55;;;;;;;9.00;7.90;;;;;;;6.39;100.00;98082.08;103574;1300;24320;-30
2022/04/06 01:25:20;;;;;;;7.70;6.60;;;;;;;6.42;100.00;98077.04;103503;1300;24064;-24
2022/04/06 01:27:46;;;;;;;9.10;8.20;;;;;;;6.55;100.00;98075.74;103536;1300;24205;-27
2022/04/06 01:30:12;;;;;;;6.60;6.00;;;;;;;6.67;100.00;98076.13;103477;1301;22493;-25
2022/04/06 01:32:38;;;;;;;6.70;5.90;;;;;;;6.65;99.95;98072.64;103548;1299;24302;-25
2022/04/06 01:35:04;;;;;;;8.60;7.40;;;;;;;6.57;100.00;98071.86;103541;1300;24366;-28
2022/04/06 01:37:31;;;;;;;9.20;8.20;;;;;;;6.66;100.00;98067.30;103553;1302;24335;-29
2022/04/06 01:39:57;;;;;;;9.00;8.20;;;;;;;6.77;99.73;98070.73;103534;1300;24254;-25
2022/04/06 01:42:22;;;;;;;10.40;9.00;;;;;;;6.53;99.98;98074.80;103608;1300;24332;-25
2022/04/06 01:44:49;;;;;;;12.60;8.70;;;;;;;6.52;100.00;98071.52;103580;1300;24320;-30
2022/04/06 01:47:16;;;;;;;9.00;7.80;;;;;;;6.58;100.00;98072.17;103532;1300;23154;-30
2022/04/06 01:52:12;;;;;;;6.40;5.70;;;;;;;6.59;100.00;98080.18;103581;1300;23610;-25
2022/04/06 01:54:40;;;;;;;7.60;6.80;;;;;;;6.71;99.97;98079.26;103574;1300;23531;-32
2022/04/06 01:57:06;;;;;;;7.30;6.60;;;;;;;6.55;100.00;98084.28;103498;1301;22632;-27
2022/04/06 01:59:32;;;;;;;7.20;6.50;;;;;;;6.89;99.42;98081.64;103550;1300;22534;-30
2022/04/06 02:01:57;;;;;;;7.00;6.30;;;;;;;6.68;99.73;98089.14;103451;1301;25017;-30
2022/04/06 02:04:23;;;;;;;8.70;7.90;;;;;;;6.75;99.86;98085.08;103596;1300;24375;-31
2022/04/06 02:06:49;;;;;;;10.10;7.00;;;;;;;6.89;99.19;98087.92;103616;1300;24306;-25
2022/04/06 02:09:15;;;;;;;8.10;7.20;;;;;;;6.83;99.00;98089.39;103588;1300;24226;-29
2022/04/06 02:11:42;;;;;;;7.60;6.10;;;;;;;6.74;99.05;98095.27;103557;1300;22511;-25
2022/04/06 02:14:08;;;;;;;7.20;6.50;;;;;;;6.77;99.72;98097.97;103626;1300;24343;-29
2022/04/06 02:16:34;;;;;;;7.30;5.10;;;;;;;6.89;98.75;98098.59;103560;1300;24232;-30
2022/04/06 02:19:00;;;;;;;8.00;7.20;;;;;;;7.09;97.91;98096.30;103538;1300;24202;-25
2022/04/06 02:21:26;;;;;;;5.90;5.30;;;;;;;7.22;97.06;98096.91;103579;1300;24266;-29
2022/04/06 02:23:52;;;;;;;7.60;7.00;;;;;;;7.04;96.97;98088.95;103640;1300;23411;-29
2022/04/06 02:26:17;;;;;;;7.40;6.60;;;;;;;7.00;97.29;98100.16;103438;1302;24303;-24
2022/04/06 02:28:43;;;;;;;7.00;5.90;;;;;;;6.94;97.91;98098.94;103546;1302;23613;-25
2022/04/06 02:31:08;;;;;;;6.60;5.90;;;;;;;7.16;97.17;98102.63;103524;1301;24242;-29
2022/04/06 02:33:34;;;;;;;6.30;5.70;;;;;;;6.93;97.29;98098.48;103603;1300;24212;-29
2022/04/06 02:36:00;;;;;;;6.30;5.50;;;;;;;6.88;98.22;98098.15;103636;1301;24372;-25
2022/04/06 02:38:26;;;;;;;12.70;5.10;;;;;;;6.88;98.19;98095.11;103583;1300;24259;-28
2022/04/06 02:40:52;;;;;;;6.70;4.70;;;;;;;6.96;97.83;98095.89;103558;1300;24215;-24
2022/04/06 02:43:18;;;;;;;5.60;5.10;;;;;;;6.78;98.43;98097.23;103530;1300;24356;-25
2022/04/06 02:45:44;;;;;;;7.30;6.10;;;;;;;6.89;98.75;98093.79;103606;1300;23531;-28
2022/04/06 02:48:10;;;;;;;6.70;5.50;;;;;;;6.95;98.43;98093.64;103493;1300;24197;-30
2022/04/06 02:50:35;;;;;;;5.80;5.30;;;;;;;7.00;98.24;98095.16;103401;1300;24222;-29
2022/04/06 02:53:01;;;;;;;6.50;5.90;;;;;;;7.04;97.80;98095.36;103557;1302;24300;-27
2022/04/06 02:55:27;;;;;;;7.00;5.70;;;;;;;7.26;96.20;98090.70;103525;1302;24217;-25
2022/04/06 02:57:53;;;;;;;5.90;5.40;;;;;;;7.18;96.37;98090.96;103537;1302;24238;-25
2022/04/06 03:00:18;;;;;;;4.30;3.70;;;;;;;7.30;95.79;98087.52;103498;1302;24220;-29
2022/04/06 03:02:46;;;;;;;6.60;5.30;;;;;;;7.10;95.89;98091.52;103484;1302;24379;-26
2022/04/06 03:05:12;;;;;;;5.30;4.80;;;;;;;6.89;97.39;98097.61;103534;1300;23610;-29
2022/04/06 03:07:39;;;;;;;5.50;4.90;;;;;;;7.06;97.00;98099.02;103551;1300;24289;-29
2022/04/06 03:10:05;;;;;;;5.30;4.90;;;;;;;6.96;97.47;98098.42;103524;1300;23900;-29
2022/04/06 03:12:31;;;;;;;4.60;4.00;;;;;;;6.96;97.60;98096.98;103565;1300;24296;-25
2022/04/06 03:14:57;;;;;;;4.90;4.00;;;;;;;7.17;96.65;98098.80;103454;1302;24240;-24
2022/04/06 03:17:22;;;;;;;6.10;4.30;;;;;;;7.04;97.03;98097.63;103532;1300;24259;-32
2022/04/06 03:19:50;;;;;;;3.10;2.70;;;;;;;6.91;97.30;98109.68;103534;1302;23901;-29
2022/04/06 03:22:17;;;;;;;6.10;4.60;;;;;;;7.13;97.50;98100.04;103561;1300;22849;-25
2022/04/06 03:24:44;;;;;;;5.00;4.40;;;;;;;6.94;96.90;98108.66;103601;1300;22510;-25
2022/04/06 03:27:10;;;;;;;6.30;5.40;;;;;;;6.81;98.41;98104.10;103542;1302;24251;-29
2022/04/06 03:29:36;;;;;;;7.90;4.80;;;;;;;6.83;98.50;98105.05;103416;1302;24322;-25
2022/04/06 03:32:01;;;;;;;4.90;4.40;;;;;;;7.04;98.27;98104.06;103579;1300;24480;-29
2022/04/06 03:34:28;;;;;;;5.70;5.20;;;;;;;7.00;97.52;98106.58;103524;1300;24244;-30
2022/04/06 03:36:53;;;;;;;5.10;4.20;;;;;;;6.93;98.17;98107.88;103566;1300;24246;-25
2022/04/06 03:39:19;;;;;;;5.90;5.20;;;;;;;7.09;97.57;98106.23;103578;1300;24323;-26
2022/04/06 03:41:45;;;;;;;5.70;4.80;;;;;;;7.10;97.68;98109.35;103565;1300;24286;-29
2022/04/06 03:44:10;;;;;;;5.60;5.00;;;;;;;7.24;96.77;98104.30;103515;1300;24308;-25
2022/04/06 03:46:36;;;;;;;5.90;5.10;;;;;;;7.39;95.60;98106.17;103497;1300;24229;-27
2022/04/06 03:49:02;;;;;;;5.90;5.30;;;;;;;7.14;96.33;98108.79;103539;1300;24256;-29
2022/04/06 03:51:28;;;;;;;4.70;4.30;;;;;;;7.19;96.43;98111.00;103525;1301;24209;-28
2022/04/06 03:53:54;;;;;;;4.60;4.10;;;;;;;7.14;96.76;98108.29;103504;1299;24244;-27
2022/04/06 03:56:19;;;;;;;4.90;3.90;;;;;;;7.26;96.54;98108.36;103515;1300;22512;-25
2022/04/06 03:58:45;;;;;;;4.90;4.50;;;;;;;7.41;95.54;98115.75;103550;1300;24313;-25
2022/04/06 04:01:11;;;;;;;3.90;3.30;;;;;;;7.06;96.42;98119.59;103506;1300;24305;-26
2022/04/06 04:03:36;;;;;;;4.10;3.70;;;;;;;7.10;96.98;98117.86;103520;1300;23845;-30
2022/04/06 04:06:02;;;;;;;5.20;4.70;;;;;;;7.16;96.72;98115.85;103536;1302;23055;-24
2022/04/06 04:08:28;;;;;;;4.70;4.10;;;;;;;7.32;95.84;98114.60;103536;1300;24247;-29
2022/04/06 04:10:54;;;;;;;3.00;2.70;;;;;;;7.15;95.75;98126.83;103526;1302;22491;-25
2022/04/06 04:13:20;;;;;;;5.20;4.80;;;;;;;7.09;96.66;98117.48;103294;1300;378007;-25
2022/04/06 04:15:45;;;;;;;6.00;3.90;;;;;;;7.36;95.79;98115.25;103584;1300;24408;-25
2022/04/06 04:18:11;;;;;;;4.20;3.70;;;;;;;7.27;95.53;98119.09;103539;1301;24215;-25
2022/04/06 04:20:37;;;;;;;4.20;3.70;;;;;;;7.17;95.79;98114.98;103246;1302;24302;-25
2022/04/06 04:23:02;;;;;;;7.60;4.40;;;;;;;7.15;96.49;98119.46;103468;1300;24378;-31
2022/04/06 04:25:28;;;;;;;5.80;5.00;;;;;;;7.23;96.09;98122.23;103603;1300;24297;-25
2022/04/06 04:27:54;;;;;;;5.10;4.50;;;;;;;7.23;95.88;98126.44;103536;1300;24305;-29
2022/04/06 04:30:21;;;;;;;5.70;5.10;;;;;;;7.34;96.10;98121.96;103490;1300;24241;-25
2022/04/06 04:32:47;;;;;;;5.70;5.10;;;;;;;7.09;96.32;98126.94;103582;1300;22738;-29
2022/04/06 04:35:13;;;;;;;12.10;5.80;;;;;;;7.24;96.38;98126.14;103499;1300;24325;-29
2022/04/06 04:37:39;;;;;;;5.20;4.50;;;;;;;7.25;96.02;98121.30;103611;1300;24326;-25
2022/04/06 04:40:05;;;;;;;5.40;4.90;;;;;;;7.17;96.82;98127.73;103560;1300;24359;-31
2022/04/06 04:42:32;;;;;;;7.30;5.80;;;;;;;7.10;97.01;98132.32;103532;1302;24016;-25
2022/04/06 04:44:58;;;;;;;3.20;3.00;;;;;;;7.23;97.05;98127.67;103567;1300;24205;-25
2022/04/06 04:47:23;;;;;;;4.80;3.90;;;;;;;7.28;96.24;98132.65;103525;1300;24305;-29
2022/04/06 04:49:49;;;;;;;5.10;4.40;;;;;;;7.39;96.12;98134.94;103633;1301;23857;-29
2022/04/06 04:52:15;;;;;;;5.60;4.40;;;;;;;7.22;96.60;98142.27;103528;1300;23606;-25
2022/04/06 04:54:41;;;;;;;5.70;5.20;;;;;;;7.34;96.50;98141.71;103529;1300;24188;-29
2022/04/06 04:57:07;;;;;;;9.10;5.10;;;;;;;7.28;96.69;98142.88;103453;1302;24249;-26
2022/04/06 04:59:33;;;;;;;5.40;3.80;;;;;;;7.53;95.77;98141.78;103511;1300;24348;-29
2022/04/06 05:01:59;;;;;;;4.00;3.60;;;;;;;7.47;96.13;98145.73;103499;1301;24304;-25
2022/04/06 05:04:24;;;;;;;6.00;5.40;;;;;;;7.27;96.73;98152.29;103465;1300;24281;-26
2022/04/06 05:06:50;;;;;;;6.60;4.90;;;;;;;7.38;97.07;98148.79;103427;1300;24212;-25
2022/04/06 05:09:17;;;;;;;3.80;3.50;;;;;;;7.35;96.83;98151.66;103608;1301;23866;-29
2022/04/06 05:11:43;;;;;;;5.10;4.70;;;;;;;7.45;96.99;98151.61;103554;1300;25110;-30
2022/04/06 05:14:09;;;;;;;5.50;5.00;;;;;;;7.26;97.46;98158.20;103528;1300;24367;-27
2022/04/06 05:16:35;;;;;;;3.30;3.00;;;;;;;7.28;98.01;98158.12;103556;1302;23966;-25
2022/04/06 05:19:01;;;;;;;4.80;4.20;;;;;;;7.45;97.65;98160.54;103827;1300;24245;-25
2022/04/06 05:21:27;;;;;;;5.70;5.00;;;;;;;7.25;98.37;98164.48;103516;1301;24240;-30
2022/04/06 05:23:52;;;;;;;4.20;3.80;;;;;;;7.39;98.35;98162.89;103567;1300;24237;-32
2022/04/06 05:26:18;;;;;;;5.90;5.20;;;;;;;7.43;97.97;98165.67;103553;1300;24226;-30
2022/04/06 05:28:44;;;;;;;6.20;5.60;;;;;;;7.43;98.49;98166.21;103502;1302;24226;-25
2022/04/06 05:31:10;;;;;;;6.70;5.10;;;;;;;7.71;97.88;98162.99;103583;1302;24333;-25
2022/04/06 05:33:35;;;;;;;5.10;4.70;;;;;;;7.58;97.77;98164.59;103600;1300;23738;-30
2022/04/06 05:36:02;;;;;;;8.10;5.70;;;;;;;7.60;98.00;98169.11;103546;1300;22815;-28
2022/04/06 05:38:27;;;;;;;5.80;4.90;;;;;;;7.67;98.23;98167.58;103635;1300;22785;-30
2022/04/06 05:40:53;;;;;;;6.50;5.90;;;;;;;7.83;97.43;98164.08;103637;1301;24723;-25
2022/04/06 05:43:18;;;;;;;5.50;4.90;;;;;;;7.89;97.37;98156.27;103523;1302;22491;-30
2022/04/06 05:45:44;;;;;;;5.80;5.00;;;;;;;7.68;97.77;98167.79;103444;1302;24359;-23
2022/04/06 05:48:10;;;;;;;7.80;5.20;;;;;;;7.86;97.20;98162.89;103524;1300;24217;-29
2022/04/06 05:50:36;;;;;;;5.90;4.70;;;;;;;7.72;98.36;98167.03;103587;1300;24256;-25
2022/04/06 05:53:02;;;;;;;4.10;3.60;;;;;;;7.93;97.68;98163.73;103468;1302;24192;-29
2022/04/06 05:55:27;;;;;;;9.00;3.60;;;;;;;7.90;97.30;98167.56;103547;1299;24409;-30
2022/04/06 05:57:53;;;;;;;5.90;5.00;;;;;;;7.85;97.37;98168.20;103526;1302;22618;-30
2022/04/06 06:00:19;;;;;;;3.70;3.40;;;;;;;7.94;97.15;98168.88;103535;1301;24302;-30
2022/04/06 06:02:45;;;;;;;5.60;3.90;;;;;;;7.92;97.94;98171.02;103573;1300;24192;-30
2022/04/06 06:05:11;;;;;;;5.40;4.80;;;;;;;8.06;97.18;98166.98;103596;1300;24277;-24
2022/04/06 06:07:37;;;;;;;6.80;3.90;;;;;;;8.10;97.06;98176.77;103538;1300;24301;-28
2022/04/06 06:10:03;;;;;;;6.90;5.80;;;;;;;8.32;96.08;98175.39;103589;1302;24284;-30
2022/04/06 06:12:30;;;;;;;5.00;4.60;;;;;;;8.12;96.08;98182.23;103592;1300;24206;-25
2022/04/06 06:14:56;;;;;;;7.70;5.20;;;;;;;7.92;97.87;98183.64;103571;1300;24257;-32
2022/04/06 06:17:22;;;;;;;5.00;4.50;;;;;;;8.05;97.83;98182.38;103585;1300;24218;-32
2022/04/06 06:19:49;;;;;;;4.00;3.40;;;;;;;8.17;97.35;98178.52;103551;1300;24236;-25
2022/04/06 06:22:14;;;;;;;5.50;4.50;;;;;;;8.13;96.82;98188.45;103507;1300;24217;-27
2022/04/06 06:24:40;;;;;;;6.00;4.80;;;;;;;7.83;98.57;98190.61;103501;1300;25345;-25
2022/04/06 06:27:06;;;;;;;3.20;2.30;;;;;;;7.97;98.89;98184.66;103374;1301;24270;-26
2022/04/06 06:29:32;;;;;;;5.80;4.20;;;;;;;7.98;98.15;98188.61;103555;1302;24301;-26
2022/04/06 06:31:59;;;;;;;4.50;3.90;;;;;;;7.74;99.40;98192.33;103574;1300;24378;-25
2022/04/06 06:34:25;;;;;;;5.00;4.30;;;;;;;7.77;100.00;98190.59;103618;1300;24301;-25
2022/04/06 06:36:50;;;;;;;5.20;4.70;;;;;;;7.73;100.00;98197.30;103427;1302;24299;-25
2022/04/06 06:39:16;;;;;;;4.90;3.60;;;;;;;7.87;100.00;98192.38;103529;1300;24212;-30
2022/04/06 06:41:43;;;;;;;3.10;2.20;;;;;;;8.06;99.43;98194.23;103494;1300;24212;-32
2022/04/06 06:44:09;;;;;;;4.20;3.60;;;;;;;7.91;99.31;98200.77;103567;1300;24321;-32
2022/04/06 06:46:35;;;;;;;5.80;4.60;;;;;;;7.94;99.95;98195.41;103510;1300;22483;-26
2022/04/06 06:49:03;;;;;;;4.40;3.20;;;;;;;7.96;99.97;98195.44;103515;1300;24301;-31
2022/04/06 06:51:30;;;;;;;4.80;3.00;;;;;;;7.76;100.00;98196.52;103544;1300;24336;-24
2022/04/06 06:53:57;;;;;;;4.20;3.00;;;;;;;8.03;99.88;98194.23;103489;1302;24323;-26
2022/04/06 06:56:23;;;;;;;3.80;2.70;;;;;;;7.81;99.99;98204.02;103519;1301;24450;-25
2022/04/06 06:58:49;;;;;;;4.80;4.10;;;;;;;7.93;100.00;98203.88;103427;1301;22791;-25
2022/04/06 07:01:15;;;;;;;3.00;2.50;;;;;;;8.14;99.74;98197.66;103530;1300;24341;-25
2022/04/06 07:03:40;;;;;;;5.30;3.30;;;;;;;7.93;100.00;98202.25;103504;1302;24338;-25
2022/04/06 07:06:06;;;;;;;3.80;3.10;;;;;;;8.13;100.00;98192.19;103551;1302;24421;-32
2022/04/06 07:08:31;;;;;;;4.10;3.50;;;;;;;8.30;99.78;98190.38;103528;1302;24248;-29
2022/04/06 07:10:57;;;;;;;7.50;4.00;;;;;;;8.49;99.34;98195.06;103576;1300;24419;-25
2022/04/06 07:13:24;;;;;;;6.60;3.20;;;;;;;8.52;98.41;98194.63;103563;1300;22510;-27
2022/04/06 07:15:49;;;;;;;3.00;2.50;;;;;;;8.65;98.98;98200.38;103530;1300;24221;-30
2022/04/06 07:18:17;;;;;;;3.40;3.00;;;;;;;8.93;98.55;98193.42;103479;1300;24198;-30
2022/04/06 07:20:43;;;;;;;3.10;2.80;;;;;;;8.87;97.93;98202.73;103564;1301;24291;-30
2022/04/06 07:23:09;;;;;;;4.30;3.30;;;;;;;9.05;97.60;98204.52;103526;1302;24223;-24
2022/04/06 07:25:34;;;;;;;3.40;3.00;;;;;;;9.03;97.20;98204.90;103526;1302;24407;-27
2022/04/06 07:28:01;;;;;;;4.00;3.30;;;;;;;9.03;97.90;98207.73;103541;1300;24431;-32
2022/04/06 07:30:27;;;;;;;2.10;1.90;;;;;;;9.14;97.78;98206.77;103524;1300;24247;-25
2022/04/06 07:32:52;;;;;;;3.10;2.80;;;;;;;9.26;96.20;98213.77;103547;1301;24257;-29
2022/04/06 07:35:19;;;;;;;3.40;2.40;;;;;;;9.51;93.87;98211.35;103480;1300;24353;-30
2022/04/06 07:37:48;;;;;;;5.40;3.30;;;;;;;9.68;92.92;98212.68;103605;1301;24214;-30
2022/04/06 07:40:14;;;;;;;3.90;2.20;;;;;;;9.38;93.74;98217.48;103582;1300;24213;-25
2022/04/06 07:42:40;;;;;;;2.40;2.00;;;;;;;9.35;95.02;98217.95;103559;1301;24375;-26
2022/04/06 07:45:08;;;;;;;4.20;2.70;;;;;;;9.98;92.21;98217.07;103585;1302;25324;-26
2022/04/06 07:47:34;;;;;;;3.10;2.50;;;;;;;9.68;91.90;98211.58;103586;1300;24259;-30
2022/04/06 07:50:01;;;;;;;3.60;1.70;;;;;;;9.72;90.84;98208.16;103453;1302;24241;-25
2022/04/06 07:52:27;;;;;;;3.40;2.70;;;;;;;9.92;90.33;98212.46;103556;1302;23610;-24
2022/04/06 07:54:53;;;;;;;4.30;3.20;;;;;;;10.21;87.36;98216.25;103490;1302;22738;-30
2022/04/06 07:57:20;;;;;;;3.30;2.10;;;;;;;9.91;89.14;98215.13;103618;1300;24237;-30
2022/04/06 07:59:46;;;;;;;4.00;3.50;;;;;;;10.07;88.79;98216.14;103575;1302;24413;-29
2022/04/06 08:02:12;;;;;;;3.00;2.70;;;;;;;10.21;88.40;98210.15;103504;1302;24407;-25
2022/04/06 08:04:38;;;;;;;3.90;2.70;;;;;;;10.27;87.65;98214.13;103470;1302;22500;-24
2022/04/06 08:07:03;;;;;;;2.30;1.80;;;;;;;10.62;85.77;98208.33;103564;1300;24367;-29
2022/04/06 08:09:29;;;;;;;2.50;1.90;;;;;;;10.34;86.11;98214.23;103505;1301;24248;-24
2022/04/06 08:11:55;;;;;;;3.40;2.60;;;;;;;10.10;85.93;98221.08;103421;1302;24215;-25
2022/04/06 08:14:22;;;;;;;2.70;2.30;;;;;;;10.19;86.59;98224.66;103515;1300;24000;-30
2022/04/06 08:16:47;;;;;;;3.70;2.60;;;;;;;10.26;86.07;98227.14;103519;1302;24392;-30
2022/04/06 08:19:13;;;;;;;2.20;1.80;;;;;;;10.24;85.61;98217.48;103540;1302;24216;-29
2022/04/06 08:21:40;;;;;;;3.40;2.70;;;;;;;10.23;85.31;98226.61;103498;1300;22508;-24
2022/04/06 08:24:06;;;;;;;4.20;3.20;;;;;;;9.94;86.46;98228.09;103416;1302;24300;-29
2022/04/06 08:26:34;;;;;;;2.80;1.90;;;;;;;10.26;86.25;98228.67;103555;1301;24209;-25
2022/04/06 08:29:00;;;;;;;3.30;3.00;;;;;;;10.23;86.84;98223.66;103532;1302;24214;-30
2022/04/06 08:31:25;;;;;;;5.20;2.20;;;;;;;10.19;86.27;98225.95;103465;1300;24256;-24
2022/04/06 08:33:51;;;;;;;3.70;1.90;;;;;;;10.22;87.04;98220.21;103525;1300;24407;-24
2022/04/06 08:36:17;;;;;;;3.60;2.90;;;;;;;10.52;85.65;98217.08;103503;1302;24292;-25
2022/04/06 08:38:43;;;;;;;3.90;2.90;;;;;;;10.44;85.72;98217.77;103542;1300;24352;-29
2022/04/06 08:41:09;;;;;;;4.90;2.90;;;;;;;10.86;84.85;98223.55;103624;1300;24212;-29
2022/04/06 08:43:35;;;;;;;4.20;2.60;;;;;;;11.00;84.26;98222.58;103481;1302;24136;-29
2022/04/06 08:46:02;;;;;;;4.50;3.60;;;;;;;11.48;83.56;98224.90;103570;1302;23639;-25
2022/04/06 08:48:29;;;;;;;3.10;2.20;;;;;;;11.55;82.79;98227.10;103543;1300;24340;-29
2022/04/06 08:50:56;;;;;;;3.30;2.40;;;;;;;11.96;80.15;98219.74;103493;1302;22852;-30
2022/04/06 08:53:21;;;;;;;2.90;2.40;;;;;;;11.82;80.07;98222.05;103455;1300;24353;-29
2022/04/06 08:55:47;;;;;;;2.90;2.60;;;;;;;12.11;77.93;98218.27;103538;1300;24303;-29
2022/04/06 08:58:13;;;;;;;1.60;1.40;;;;;;;11.97;76.82;98222.69;103535;1300;24249;-24
2022/04/06 09:00:38;;;;;;;3.30;2.30;;;;;;;12.04;75.24;98222.27;103490;1300;22551;-29
2022/04/06 09:03:06;;;;;;;2.40;2.10;;;;;;;12.05;75.36;98224.04;103535;1300;24272;-25
2022/04/06 09:05:32;;;;;;;1.90;1.50;;;;;;;11.99;75.04;98218.83;103367;1302;22499;-25
2022/04/06 09:07:59;;;;;;;4.00;2.60;;;;;;;11.67;75.01;98215.98;103481;1302;24297;-29
2022/04/06 09:10:31;;;;;;;2.90;1.40;;;;;;;11.68;75.45;98218.32;103453;1302;24256;-26
2022/04/06 09:13:04;;;;;;;2.30;2.10;;;;;;;11.87;75.23;98215.61;103554;1300;26113;-25
2022/04/06 09:15:29;;;;;;;4.20;3.10;;;;;;;12.11;73.41;98215.10;103607;1302;23870;-29
2022/04/06 09:17:55;;;;;;;1.80;1.60;;;;;;;11.63;74.71;98216.75;103583;1301;23872;-29
2022/04/06 09:20:24;;;;;;;2.50;2.20;;;;;;;11.64;75.18;98219.83;103600;1300;24446;-31
2022/04/06 09:22:50;;;;;;;1.50;1.20;;;;;;;11.82;74.94;98216.89;103537;1300;22496;-31
2022/04/06 09:25:18;;;;;;;2.60;2.30;;;;;;;11.70;75.13;98216.88;103470;1301;24233;-25
2022/04/06 09:27:44;;;;;;;2.60;2.10;;;;;;;11.82;74.62;98217.80;103514;1301;25339;-24
2022/04/06 09:30:10;;;;;;;2.30;2.00;;;;;;;11.45;75.36;98220.17;103521;1300;22861;-29
2022/04/06 09:32:36;;;;;;;2.70;2.40;;;;;;;11.48;75.21;98215.66;103576;1300;24229;-25
2022/04/06 09:35:18;;;;;;;2.50;1.90;;;;;;;11.56;75.43;98213.51;103554;1302;23731;-29
2022/04/06 09:37:44;;;;;;;2.80;2.30;;;;;;;11.90;74.19;98207.34;103454;1300;24376;-29
2022/04/06 09:40:11;;;;;;;2.40;1.70;;;;;;;11.81;74.36;98200.88;103506;1300;23422;-29
2022/04/06 09:42:37;;;;;;;3.50;2.40;;;;;;;12.14;72.70;98193.23;103610;1300;24288;-29
2022/04/06 09:50:06;;;;;;;1.90;1.70;;;;;;;11.83;73.55;98195.27;103477;1302;24704;-30
2022/04/06 09:52:32;;;;;;;2.90;2.70;;;;;;;11.93;73.20;98194.89;103580;1300;24212;-29
2022/04/06 09:54:58;;;;;;;1.70;1.60;;;;;;;11.98;72.85;98194.45;103572;1300;24212;-29
2022/04/06 09:57:23;;;;;;;2.90;2.10;;;;;;;11.78;74.27;98200.00;103430;1303;24174;-25
2022/04/06 09:59:49;;;;;;;3.30;2.20;;;;;;;11.62;74.96;98196.78;103606;1300;24321;-25
2022/04/06 10:02:15;;;;;;;3.30;2.40;;;;;;;11.63;75.71;98192.65;103463;1300;24256;-29
2022/04/06 10:04:43;;;;;;;2.40;1.60;;;;;;;12.00;73.53;98193.25;103610;1300;24352;-25
2022/04/06 10:07:09;;;;;;;2.00;1.90;;;;;;;12.04;73.69;98194.98;103503;1300;24368;-29
2022/04/06 10:09:35;;;;;;;2.50;2.20;;;;;;;12.07;74.29;98189.27;103413;1302;24422;-25
2022/04/06 10:12:01;;;;;;;1.60;1.40;;;;;;;12.61;72.09;98186.98;103523;1300;24252;-29
2022/04/06 10:14:27;;;;;;;3.60;2.10;;;;;;;12.95;69.94;98179.04;103681;1300;24174;-29
2022/04/06 10:16:52;;;;;;;1.90;1.10;;;;;;;13.01;69.39;98176.92;103434;1300;24358;-28
2022/04/06 10:19:19;;;;;;;2.20;2.00;;;;;;;12.99;68.91;98174.19;103551;1300;24252;-29
2022/04/06 10:21:53;;;;;;;1.60;1.40;;;;;;;13.47;66.64;98169.27;103513;1300;24226;-28
2022/04/06 10:24:26;;;;;;;2.60;1.90;;;;;;;13.58;66.42;98164.42;103568;1300;26011;-28
2022/04/06 10:27:15;;;;;;;3.60;2.00;;;;;;;14.03;64.74;98160.80;103520;1300;24146;-25
2022/04/06 10:29:48;;;;;;;3.90;1.40;;;;;;;14.03;64.91;98161.03;103554;1300;24335;-27
2022/04/06 10:32:20;;;;;;;2.30;1.80;;;;;;;13.82;64.74;98165.86;103509;1302;26013;-28
2022/04/06 10:34:46;;;;;;;1.40;1.30;;;;;;;13.73;63.99;98161.55;103588;1300;23908;-29
2022/04/06 10:37:15;;;;;;;5.50;1.60;;;;;;;13.92;64.29;98160.12;103517;1300;24214;-31
2022/04/06 10:39:57;;;;;;;5.50;1.80;;;;;;;13.90;64.38;98158.64;103571;1300;25117;-25
2022/04/06 10:42:27;;;;;;;2.40;1.30;;;;;;;13.59;64.21;98174.73;103494;1300;24359;-30
2022/04/06 10:44:53;;;;;;;3.70;1.50;;;;;;;13.58;64.60;98165.38;103612;1300;24814;-29
2022/04/06 10:47:19;;;;;;;3.70;1.80;;;;;;;13.37;64.51;98168.12;103565;1300;22596;-31
2022/04/06 10:49:45;;;;;;;2.00;1.40;;;;;;;13.10;65.23;98170.40;103294;1302;24247;-29
2022/04/06 10:52:18;;;;;;;22.40;3.70;;;;;;;12.93;64.93;98168.09;103556;1300;24390;-24
2022/04/06 10:54:44;;;;;;;2.10;1.50;;;;;;;12.96;66.05;98171.52;103517;1301;25338;-29
2022/04/06 10:57:09;;;;;;;1.40;1.20;;;;;;;13.10;65.52;98162.20;103599;1300;24276;-29
2022/04/06 10:59:35;;;;;;;3.10;1.50;;;;;;;13.25;65.14;98165.38;103580;1300;24237;-25
2022/04/06 11:02:08;;;;;;;2.40;1.90;;;;;;;13.35;64.55;98165.02;103594;1300;22834;-25
2022/04/06 11:04:39;;;;;;;1.90;1.70;;;;;;;13.32;63.73;98159.41;103582;1300;22832;-31
2022/04/06 11:07:04;;;;;;;2.70;2.30;;;;;;;13.49;62.58;98162.32;103567;1300;24196;-24
2022/04/06 11:12:05;;;;;;;3.50;1.90;;;;;;;13.24;63.70;98164.72;103900;1300;22505;-25
2022/04/06 11:14:31;;;;;;;2.60;1.40;;;;;;;13.21;63.55;98164.79;103590;1300;22772;-30
2022/04/06 11:16:57;;;;;;;3.00;1.60;;;;;;;13.55;62.86;98155.20;103582;1300;24210;-30
2022/04/06 11:19:34;;;;;;;1.80;1.60;;;;;;;13.45;63.35;98155.09;104135;1300;24411;-29
2022/04/06 11:22:01;;;;;;;2.30;1.90;;;;;;;13.56;63.76;98157.33;104241;1302;26018;-25
2022/04/06 11:24:27;;;;;;;2.70;1.60;;;;;;;13.79;62.63;98160.05;103725;1301;23044;-30
2022/04/06 11:26:53;;;;;;;4.10;1.50;;;;;;;13.82;62.87;98160.90;103671;1300;24324;-28
2022/04/06 11:29:25;;;;;;;1.90;1.40;;;;;;;14.21;61.72;98160.06;103581;1300;24248;-29
2022/04/06 11:31:52;;;;;;;3.20;1.90;;;;;;;14.43;61.13;98150.21;103801;1302;22558;-31
2022/04/06 11:34:25;;;;;;;2.00;1.10;;;;;;;13.99;62.87;98163.17;103727;1300;24405;-29